Anzahl Datensätze: 284
min. Temperatur: 15.0 °C
max. Temperatur: 28.5 °C
max. Windgeschwindigkeit: 10.1 km/h
Niederschlagsumme: 0.0 mm
| Datum |
Zeit |
Temp °C |
Feuchte % |
Taupunkt °C |
Luftdruck hPa |
Wind km/h |
Windrichtung |
Strahlung w/m² |
Niederschlag mm |
|---|---|---|---|---|---|---|---|---|---|
| 29.08.2024 | 00:01 | 17.9 | 84 | 15.1 | 1017.6 | 1.8 | N | 0 | 0.0 |
| 29.08.2024 | 00:06 | 17.9 | 81 | 14.5 | 1017.5 | 2.2 | N | 0 | 0.0 |
| 29.08.2024 | 00:11 | 18.1 | 82 | 15.0 | 1017.5 | 1.1 | N | 0 | 0.0 |
| 29.08.2024 | 00:16 | 17.8 | 82 | 14.7 | 1017.6 | 1.4 | N | 0 | 0.0 |
| 29.08.2024 | 00:21 | 17.8 | 81 | 14.5 | 1017.6 | 1.1 | N | 0 | 0.0 |
| 29.08.2024 | 00:26 | 17.7 | 81 | 14.4 | 1017.6 | 1.4 | N | 0 | 0.0 |
| 29.08.2024 | 00:31 | 17.6 | 81 | 14.3 | 1017.6 | 1.1 | N | 0 | 0.0 |
| 29.08.2024 | 00:36 | 17.6 | 83 | 14.7 | 1017.7 | 0.7 | N | 0 | 0.0 |
| 29.08.2024 | 00:41 | 17.6 | 83 | 14.6 | 1017.6 | 1.4 | N | 0 | 0.0 |
| 29.08.2024 | 00:46 | 17.5 | 82 | 14.4 | 1017.5 | 1.8 | N | 0 | 0.0 |
| 29.08.2024 | 00:51 | 17.6 | 83 | 14.7 | 1017.5 | 2.5 | N | 0 | 0.0 |
| 29.08.2024 | 00:56 | 17.3 | 84 | 14.6 | 1017.5 | 1.8 | N | 0 | 0.0 |
| 29.08.2024 | 01:01 | 17.3 | 84 | 14.7 | 1017.6 | 0.4 | N | 0 | 0.0 |
| 29.08.2024 | 01:06 | 17.2 | 85 | 14.6 | 1017.7 | 0.7 | N | 0 | 0.0 |
| 29.08.2024 | 01:11 | 17.0 | 85 | 14.5 | 1017.8 | 0.7 | N | 0 | 0.0 |
| 29.08.2024 | 01:16 | 17.0 | 84 | 14.4 | 1017.8 | 0.7 | N | 0 | 0.0 |
| 29.08.2024 | 01:21 | 16.9 | 87 | 14.7 | 1017.8 | 1.8 | N | 0 | 0.0 |
| 29.08.2024 | 01:26 | 16.8 | 85 | 14.4 | 1017.9 | 1.8 | N | 0 | 0.0 |
| 29.08.2024 | 01:31 | 16.9 | 86 | 14.6 | 1017.9 | 1.1 | N | 0 | 0.0 |
| 29.08.2024 | 01:36 | 16.9 | 86 | 14.6 | 1017.9 | 0.7 | N | 0 | 0.0 |
| 29.08.2024 | 01:41 | 17.2 | 84 | 14.5 | 1018.0 | 1.8 | N | 0 | 0.0 |
| 29.08.2024 | 01:47 | 17.1 | 84 | 14.4 | 1017.9 | 1.1 | N | 0 | 0.0 |
| 29.08.2024 | 01:52 | 17.0 | 85 | 14.5 | 1017.9 | 1.1 | N | 0 | 0.0 |
| 29.08.2024 | 01:57 | 17.0 | 85 | 14.6 | 1017.9 | 2.9 | N | 0 | 0.0 |
| 29.08.2024 | 02:02 | 16.5 | 88 | 14.5 | 1018.0 | 1.4 | N | 0 | 0.0 |
| 29.08.2024 | 02:07 | 16.4 | 88 | 14.4 | 1018.0 | 1.1 | N | 0 | 0.0 |
| 29.08.2024 | 02:12 | 16.7 | 87 | 14.5 | 1017.9 | 0.7 | N | 0 | 0.0 |
| 29.08.2024 | 02:17 | 16.8 | 86 | 14.5 | 1017.9 | 1.1 | N | 0 | 0.0 |
| 29.08.2024 | 02:22 | 16.7 | 88 | 14.7 | 1018.1 | 0.4 | N | 0 | 0.0 |
| 29.08.2024 | 02:27 | 16.5 | 89 | 14.7 | 1018.0 | 1.1 | N | 0 | 0.0 |
| 29.08.2024 | 02:32 | 16.5 | 88 | 14.6 | 1018.0 | 0.4 | N | 0 | 0.0 |
| 29.08.2024 | 02:37 | 16.5 | 88 | 14.6 | 1018.1 | 1.4 | N | 0 | 0.0 |
| 29.08.2024 | 02:42 | 16.5 | 88 | 14.5 | 1018.2 | 1.4 | N | 0 | 0.0 |
| 29.08.2024 | 02:47 | 16.5 | 88 | 14.5 | 1018.2 | 1.4 | N | 0 | 0.0 |
| 29.08.2024 | 02:52 | 16.4 | 87 | 14.3 | 1018.2 | 1.8 | N | 0 | 0.0 |
| 29.08.2024 | 02:57 | 16.5 | 86 | 14.1 | 1018.3 | 0.4 | N | 0 | 0.0 |
| 29.08.2024 | 03:02 | 16.7 | 85 | 14.2 | 1018.2 | 1.1 | N | 0 | 0.0 |
| 29.08.2024 | 03:07 | 16.8 | 86 | 14.5 | 1018.2 | 1.1 | N | 0 | 0.0 |
| 29.08.2024 | 03:12 | 16.7 | 86 | 14.4 | 1018.2 | 1.4 | N | 0 | 0.0 |
| 29.08.2024 | 03:17 | 16.7 | 87 | 14.6 | 1018.2 | 0.4 | N | 0 | 0.0 |
| 29.08.2024 | 03:22 | 16.6 | 87 | 14.5 | 1018.2 | 0.7 | N | 0 | 0.0 |
| 29.08.2024 | 03:27 | 16.7 | 87 | 14.6 | 1018.3 | 1.8 | N | 0 | 0.0 |
| 29.08.2024 | 03:32 | 16.5 | 88 | 14.6 | 1018.4 | 1.4 | N | 0 | 0.0 |
| 29.08.2024 | 03:37 | 16.5 | 88 | 14.5 | 1018.3 | 0.7 | N | 0 | 0.0 |
| 29.08.2024 | 03:42 | 16.6 | 87 | 14.5 | 1018.2 | 2.2 | N | 0 | 0.0 |
| 29.08.2024 | 03:47 | 16.7 | 87 | 14.5 | 1018.2 | 1.1 | N | 0 | 0.0 |
| 29.08.2024 | 03:52 | 16.5 | 87 | 14.4 | 1018.2 | 0.7 | N | 0 | 0.0 |
| 29.08.2024 | 03:57 | 16.8 | 86 | 14.4 | 1018.2 | 1.8 | N | 0 | 0.0 |
| 29.08.2024 | 04:02 | 16.6 | 88 | 14.6 | 1018.2 | 0.7 | N | 0 | 0.0 |
| 29.08.2024 | 04:07 | 16.3 | 89 | 14.5 | 1018.3 | 2.5 | N | 0 | 0.0 |
| 29.08.2024 | 04:12 | 16.2 | 89 | 14.4 | 1018.3 | 2.2 | N | 0 | 0.0 |
| 29.08.2024 | 04:17 | 16.3 | 88 | 14.3 | 1018.3 | 0.7 | N | 0 | 0.0 |
| 29.08.2024 | 04:23 | 16.4 | 86 | 14.2 | 1018.3 | 1.4 | N | 0 | 0.0 |
| 29.08.2024 | 04:28 | 16.3 | 88 | 14.3 | 1018.4 | 0.4 | N | 0 | 0.0 |
| 29.08.2024 | 04:33 | 16.0 | 90 | 14.3 | 1018.5 | 0.7 | N | 0 | 0.0 |
| 29.08.2024 | 04:38 | 15.8 | 89 | 14.1 | 1018.4 | 1.8 | N | 0 | 0.0 |
| 29.08.2024 | 04:43 | 15.8 | 88 | 13.8 | 1018.4 | 2.2 | N | 0 | 0.0 |
| 29.08.2024 | 04:48 | 16.0 | 86 | 13.7 | 1018.5 | 1.1 | N | 0 | 0.0 |
| 29.08.2024 | 04:53 | 16.3 | 88 | 14.2 | 1018.4 | 2.2 | N | 0 | 0.0 |
| 29.08.2024 | 04:58 | 16.1 | 88 | 14.1 | 1018.4 | 1.8 | N | 0 | 0.0 |
| 29.08.2024 | 05:03 | 15.9 | 89 | 14.1 | 1018.5 | 3.6 | N | 0 | 0.0 |
| 29.08.2024 | 05:08 | 15.8 | 89 | 14.1 | 1018.5 | 2.5 | N | 0 | 0.0 |
| 29.08.2024 | 05:13 | 15.6 | 89 | 13.8 | 1018.5 | 1.1 | N | 0 | 0.0 |
| 29.08.2024 | 05:18 | 15.7 | 89 | 13.9 | 1018.6 | 1.4 | N | 0 | 0.0 |
| 29.08.2024 | 05:23 | 15.8 | 87 | 13.7 | 1018.6 | 1.1 | N | 0 | 0.0 |
| 29.08.2024 | 05:28 | 15.7 | 87 | 13.6 | 1018.5 | 0.7 | N | 0 | 0.0 |
| 29.08.2024 | 05:33 | 15.8 | 87 | 13.6 | 1018.6 | 0.4 | N | 0 | 0.0 |
| 29.08.2024 | 05:38 | 15.6 | 88 | 13.6 | 1018.7 | 0.7 | N | 0 | 0.0 |
| 29.08.2024 | 05:43 | 15.6 | 89 | 13.7 | 1018.6 | 1.8 | N | 0 | 0.0 |
| 29.08.2024 | 05:48 | 15.6 | 90 | 13.9 | 1018.6 | 1.1 | N | 0 | 0.0 |
| 29.08.2024 | 05:53 | 15.5 | 90 | 13.8 | 1018.8 | 1.4 | N | 0 | 0.0 |
| 29.08.2024 | 05:58 | 15.3 | 90 | 13.6 | 1018.7 | 2.5 | N | 0 | 0.0 |
| 29.08.2024 | 06:03 | 15.3 | 89 | 13.5 | 1018.7 | 1.8 | N | 0 | 0.0 |
| 29.08.2024 | 06:08 | 15.2 | 88 | 13.3 | 1018.6 | 1.4 | N | 0 | 0.0 |
| 29.08.2024 | 06:13 | 15.4 | 88 | 13.5 | 1018.8 | 1.8 | N | 0 | 0.0 |
| 29.08.2024 | 06:18 | 15.3 | 88 | 13.4 | 1018.7 | 1.8 | N | 0 | 0.0 |
| 29.08.2024 | 06:23 | 15.4 | 89 | 13.6 | 1018.7 | 0.7 | N | 0 | 0.0 |
| 29.08.2024 | 06:28 | 15.3 | 89 | 13.5 | 1018.8 | 1.4 | N | 0 | 0.0 |
| 29.08.2024 | 06:33 | 15.2 | 89 | 13.4 | 1018.9 | 1.4 | N | 0 | 0.0 |
| 29.08.2024 | 06:38 | 15.2 | 89 | 13.4 | 1018.9 | 1.8 | N | 2 | 0.0 |
| 29.08.2024 | 06:43 | 15.1 | 89 | 13.3 | 1018.9 | 1.8 | N | 3 | 0.0 |
| 29.08.2024 | 06:48 | 15.0 | 90 | 13.3 | 1019.0 | 1.8 | N | 4 | 0.0 |
| 29.08.2024 | 06:53 | 15.2 | 88 | 13.3 | 1019.0 | 1.1 | N | 7 | 0.0 |
| 29.08.2024 | 06:58 | 15.2 | 88 | 13.2 | 1019.0 | 0.4 | N | 10 | 0.0 |
| 29.08.2024 | 07:04 | 15.3 | 88 | 13.3 | 1018.9 | 1.4 | N | 13 | 0.0 |
| 29.08.2024 | 07:09 | 15.1 | 89 | 13.3 | 1019.0 | 1.8 | N | 16 | 0.0 |
| 29.08.2024 | 07:14 | 15.1 | 90 | 13.4 | 1019.1 | 1.1 | N | 19 | 0.0 |
| 29.08.2024 | 07:19 | 15.3 | 90 | 13.7 | 1019.0 | 2.5 | N | 23 | 0.0 |
| 29.08.2024 | 07:24 | 15.1 | 90 | 13.5 | 1019.2 | 1.1 | N | 26 | 0.0 |
| 29.08.2024 | 07:29 | 15.1 | 91 | 13.6 | 1019.2 | 0.7 | N | 31 | 0.0 |
| 29.08.2024 | 07:34 | 15.2 | 90 | 13.6 | 1019.1 | 0.7 | N | 34 | 0.0 |
| 29.08.2024 | 07:39 | 15.2 | 90 | 13.6 | 1019.2 | 1.1 | N | 37 | 0.0 |
| 29.08.2024 | 07:44 | 15.3 | 90 | 13.7 | 1019.2 | 1.4 | N | 39 | 0.0 |
| 29.08.2024 | 07:49 | 15.4 | 89 | 13.6 | 1019.2 | 1.1 | N | 43 | 0.0 |
| 29.08.2024 | 07:54 | 15.5 | 90 | 13.9 | 1019.3 | 2.9 | N | 44 | 0.0 |
| 29.08.2024 | 07:59 | 15.5 | 89 | 13.7 | 1019.4 | 1.4 | N | 45 | 0.0 |
| 29.08.2024 | 08:04 | 15.7 | 88 | 13.8 | 1019.4 | 0.7 | N | 47 | 0.0 |
| 29.08.2024 | 08:09 | 15.8 | 88 | 13.9 | 1019.3 | 1.1 | N | 49 | 0.0 |
| 29.08.2024 | 08:14 | 16.0 | 87 | 13.9 | 1019.3 | 1.4 | N | 52 | 0.0 |
| 29.08.2024 | 08:19 | 16.2 | 86 | 14.0 | 1019.2 | 2.9 | N | 54 | 0.0 |
| 29.08.2024 | 08:24 | 16.1 | 87 | 14.0 | 1019.2 | 2.9 | N | 55 | 0.0 |
| 29.08.2024 | 08:29 | 16.1 | 87 | 13.9 | 1019.3 | 4.3 | N | 58 | 0.0 |
| 29.08.2024 | 08:34 | 16.3 | 85 | 13.9 | 1019.2 | 1.8 | N | 60 | 0.0 |
| 29.08.2024 | 08:39 | 16.4 | 84 | 13.7 | 1019.2 | 2.5 | N | 198 | 0.0 |
| 29.08.2024 | 08:44 | 16.7 | 85 | 14.1 | 1019.3 | 1.8 | N | 214 | 0.0 |
| 29.08.2024 | 08:49 | 16.9 | 82 | 13.8 | 1019.2 | 2.5 | N | 226 | 0.0 |
| 29.08.2024 | 08:54 | 17.3 | 81 | 14.0 | 1019.1 | 5.0 | N | 239 | 0.0 |
| 29.08.2024 | 08:59 | 17.4 | 80 | 13.8 | 1019.0 | 1.1 | N | 250 | 0.0 |
| 29.08.2024 | 09:04 | 17.7 | 80 | 14.3 | 1018.9 | 2.2 | N | 263 | 0.0 |
| 29.08.2024 | 09:09 | 17.8 | 80 | 14.2 | 1018.9 | 1.4 | N | 275 | 0.0 |
| 29.08.2024 | 09:14 | 18.0 | 79 | 14.3 | 1018.8 | 2.9 | N | 287 | 0.0 |
| 29.08.2024 | 09:19 | 18.3 | 76 | 14.1 | 1018.8 | 1.4 | N | 296 | 0.0 |
| 29.08.2024 | 09:24 | 18.5 | 75 | 14.0 | 1018.7 | 3.6 | N | 307 | 0.0 |
| 29.08.2024 | 09:29 | 18.7 | 73 | 13.8 | 1018.7 | 4.3 | N | 317 | 0.0 |
| 29.08.2024 | 09:34 | 19.1 | 73 | 14.1 | 1018.6 | 3.2 | N | 330 | 0.0 |
| 29.08.2024 | 09:39 | 19.1 | 74 | 14.4 | 1018.7 | 1.8 | N | 341 | 0.0 |
| 29.08.2024 | 09:45 | 19.3 | 73 | 14.4 | 1018.6 | 0.7 | N | 355 | 0.0 |
| 29.08.2024 | 09:50 | 19.9 | 70 | 14.4 | 1018.4 | 2.9 | N | 366 | 0.0 |
| 29.08.2024 | 09:55 | 19.8 | 71 | 14.3 | 1018.2 | 2.9 | N | 377 | 0.0 |
| 29.08.2024 | 10:00 | 20.1 | 70 | 14.5 | 1018.1 | 4.3 | N | 390 | 0.0 |
| 29.08.2024 | 10:05 | 20.1 | 70 | 14.4 | 1018.2 | 2.9 | N | 400 | 0.0 |
| 29.08.2024 | 10:10 | 20.5 | 68 | 14.4 | 1018.1 | 3.2 | N | 410 | 0.0 |
| 29.08.2024 | 10:15 | 20.4 | 68 | 14.4 | 1018.0 | 3.2 | N | 421 | 0.0 |
| 29.08.2024 | 10:20 | 19.9 | 74 | 15.2 | 1018.2 | 4.0 | N | 432 | 0.0 |
| 29.08.2024 | 10:25 | 19.3 | 77 | 15.2 | 1018.4 | 3.6 | N | 440 | 0.0 |
| 29.08.2024 | 10:30 | 19.5 | 75 | 14.9 | 1018.3 | 4.3 | N | 450 | 0.0 |
| 29.08.2024 | 10:35 | 19.8 | 76 | 15.3 | 1018.2 | 4.7 | N | 460 | 0.0 |
| 29.08.2024 | 10:40 | 19.5 | 76 | 15.2 | 1018.2 | 3.2 | N | 470 | 0.0 |
| 29.08.2024 | 10:45 | 19.5 | 75 | 14.9 | 1018.3 | 5.4 | N | 480 | 0.0 |
| 29.08.2024 | 10:50 | 21.1 | 71 | 15.6 | 1017.9 | 3.6 | N | 492 | 0.0 |
| 29.08.2024 | 10:55 | 21.3 | 69 | 15.4 | 1017.8 | 1.1 | N | 500 | 0.0 |
| 29.08.2024 | 11:00 | 20.7 | 70 | 15.1 | 1017.8 | 4.7 | N | 511 | 0.0 |
| 29.08.2024 | 11:05 | 20.5 | 71 | 15.2 | 1017.8 | 2.5 | N | 520 | 0.0 |
| 29.08.2024 | 11:10 | 20.6 | 71 | 15.2 | 1017.7 | 5.4 | N | 529 | 0.0 |
| 29.08.2024 | 11:15 | 20.3 | 71 | 14.9 | 1017.8 | 5.0 | N | 538 | 0.0 |
| 29.08.2024 | 11:20 | 20.0 | 73 | 15.0 | 1017.7 | 5.0 | N | 547 | 0.0 |
| 29.08.2024 | 11:25 | 19.9 | 76 | 15.5 | 1017.8 | 4.0 | N | 554 | 0.0 |
| 29.08.2024 | 11:30 | 20.2 | 72 | 14.9 | 1017.6 | 4.0 | N | 562 | 0.0 |
| 29.08.2024 | 11:35 | 21.6 | 68 | 15.5 | 1017.2 | 4.3 | N | 570 | 0.0 |
| 29.08.2024 | 11:45 | 22.2 | 66 | 15.5 | 1016.9 | 1.8 | N | 584 | 0.0 |
| 29.08.2024 | 11:50 | 21.5 | 67 | 15.1 | 1016.9 | 5.0 | N | 591 | 0.0 |
| 29.08.2024 | 11:55 | 21.5 | 66 | 14.8 | 1016.9 | 2.5 | N | 596 | 0.0 |
| 29.08.2024 | 12:00 | 21.1 | 68 | 15.0 | 1016.9 | 4.0 | N | 602 | 0.0 |
| 29.08.2024 | 12:05 | 21.3 | 70 | 15.7 | 1016.8 | 6.1 | N | 607 | 0.0 |
| 29.08.2024 | 12:10 | 21.1 | 72 | 15.9 | 1016.8 | 4.0 | N | 614 | 0.0 |
| 29.08.2024 | 12:15 | 23.2 | 64 | 16.0 | 1016.3 | 5.4 | N | 621 | 0.0 |
| 29.08.2024 | 12:20 | 22.8 | 66 | 16.2 | 1016.4 | 1.4 | N | 624 | 0.0 |
| 29.08.2024 | 12:26 | 22.9 | 66 | 16.1 | 1016.4 | 2.5 | N | 630 | 0.0 |
| 29.08.2024 | 12:31 | 22.0 | 65 | 15.2 | 1016.3 | 5.8 | N | 633 | 0.0 |
| 29.08.2024 | 12:36 | 22.8 | 62 | 15.2 | 1016.4 | 3.2 | N | 638 | 0.0 |
| 29.08.2024 | 12:41 | 22.2 | 67 | 15.8 | 1016.2 | 5.4 | N | 644 | 0.0 |
| 29.08.2024 | 12:46 | 23.1 | 61 | 15.1 | 1016.2 | 3.6 | N | 646 | 0.0 |
| 29.08.2024 | 12:51 | 24.3 | 57 | 15.3 | 1016.0 | 1.8 | N | 648 | 0.0 |
| 29.08.2024 | 12:56 | 24.1 | 53 | 14.0 | 1016.0 | 3.2 | N | 653 | 0.0 |
| 29.08.2024 | 13:01 | 24.2 | 52 | 13.6 | 1016.0 | 3.2 | N | 654 | 0.0 |
| 29.08.2024 | 13:06 | 24.7 | 52 | 14.1 | 1015.9 | 2.5 | N | 657 | 0.0 |
| 29.08.2024 | 13:11 | 24.6 | 49 | 13.0 | 1015.8 | 2.9 | N | 656 | 0.0 |
| 29.08.2024 | 13:16 | 23.4 | 61 | 15.4 | 1016.1 | 5.0 | N | 657 | 0.0 |
| 29.08.2024 | 13:21 | 23.1 | 59 | 14.7 | 1016.3 | 2.9 | N | 661 | 0.0 |
| 29.08.2024 | 13:26 | 23.6 | 54 | 13.9 | 1016.1 | 2.5 | N | 665 | 0.0 |
| 29.08.2024 | 13:31 | 24.4 | 56 | 15.0 | 1016.0 | 2.5 | N | 664 | 0.0 |
| 29.08.2024 | 13:36 | 24.8 | 56 | 15.3 | 1015.8 | 4.7 | N | 665 | 0.0 |
| 29.08.2024 | 13:41 | 23.7 | 61 | 15.7 | 1015.9 | 2.9 | N | 657 | 0.0 |
| 29.08.2024 | 13:46 | 24.4 | 60 | 16.0 | 1015.8 | 1.8 | N | 662 | 0.0 |
| 29.08.2024 | 13:51 | 26.7 | 50 | 15.5 | 1015.4 | 2.5 | N | 661 | 0.0 |
| 29.08.2024 | 14:01 | 27.3 | 46 | 14.6 | 1015.1 | 6.8 | N | 659 | 0.0 |
| 29.08.2024 | 14:06 | 28.5 | 43 | 14.6 | 1014.9 | 5.4 | N | 661 | 0.0 |
| 29.08.2024 | 14:11 | 27.6 | 47 | 15.3 | 1015.0 | 6.5 | N | 660 | 0.0 |
| 29.08.2024 | 14:16 | 24.5 | 58 | 15.6 | 1015.6 | 4.3 | N | 655 | 0.0 |
| 29.08.2024 | 14:21 | 24.0 | 55 | 14.2 | 1015.6 | 4.7 | N | 655 | 0.0 |
| 29.08.2024 | 14:26 | 24.1 | 54 | 14.2 | 1015.6 | 3.2 | N | 656 | 0.0 |
| 29.08.2024 | 14:31 | 24.8 | 53 | 14.5 | 1015.5 | 5.0 | N | 660 | 0.0 |
| 29.08.2024 | 14:36 | 24.1 | 55 | 14.6 | 1015.6 | 5.4 | N | 657 | 0.0 |
| 29.08.2024 | 14:41 | 23.9 | 55 | 14.2 | 1015.7 | 3.6 | N | 653 | 0.0 |
| 29.08.2024 | 14:46 | 25.0 | 54 | 14.9 | 1015.4 | 3.2 | N | 648 | 0.0 |
| 29.08.2024 | 14:51 | 25.1 | 56 | 15.7 | 1015.3 | 2.9 | N | 643 | 0.0 |
| 29.08.2024 | 14:57 | 25.7 | 53 | 15.3 | 1015.0 | 3.2 | N | 638 | 0.0 |
| 29.08.2024 | 15:02 | 25.9 | 55 | 16.1 | 1014.8 | 5.4 | N | 576 | 0.0 |
| 29.08.2024 | 15:07 | 24.9 | 51 | 14.1 | 1015.2 | 4.0 | N | 608 | 0.0 |
| 29.08.2024 | 15:12 | 24.6 | 55 | 15.1 | 1015.1 | 2.2 | N | 362 | 0.0 |
| 29.08.2024 | 15:17 | 23.7 | 57 | 14.7 | 1015.5 | 3.6 | N | 299 | 0.0 |
| 29.08.2024 | 15:22 | 25.1 | 55 | 15.4 | 1015.1 | 5.0 | N | 625 | 0.0 |
| 29.08.2024 | 15:27 | 26.0 | 50 | 14.8 | 1014.9 | 4.7 | N | 611 | 0.0 |
| 29.08.2024 | 15:32 | 25.1 | 53 | 14.9 | 1015.0 | 5.0 | N | 604 | 0.0 |
| 29.08.2024 | 15:37 | 25.2 | 53 | 14.8 | 1014.9 | 3.6 | N | 598 | 0.0 |
| 29.08.2024 | 15:42 | 26.3 | 49 | 14.8 | 1014.8 | 2.9 | N | 588 | 0.0 |
| 29.08.2024 | 15:47 | 25.6 | 53 | 15.3 | 1014.9 | 5.0 | N | 578 | 0.0 |
| 29.08.2024 | 15:52 | 25.3 | 54 | 15.4 | 1014.9 | 5.4 | N | 568 | 0.0 |
| 29.08.2024 | 15:57 | 25.6 | 54 | 15.6 | 1014.9 | 4.0 | N | 556 | 0.0 |
| 29.08.2024 | 16:02 | 26.0 | 53 | 15.6 | 1014.9 | 4.0 | N | 542 | 0.0 |
| 29.08.2024 | 16:07 | 26.5 | 47 | 14.4 | 1014.9 | 4.0 | N | 531 | 0.0 |
| 29.08.2024 | 16:12 | 26.5 | 51 | 15.5 | 1014.6 | 3.2 | N | 524 | 0.0 |
| 29.08.2024 | 16:17 | 27.6 | 44 | 14.2 | 1014.6 | 2.2 | N | 514 | 0.0 |
| 29.08.2024 | 16:22 | 27.4 | 47 | 15.0 | 1014.4 | 2.5 | N | 498 | 0.0 |
| 29.08.2024 | 16:27 | 26.6 | 49 | 15.1 | 1014.6 | 5.4 | N | 485 | 0.0 |
| 29.08.2024 | 16:32 | 26.2 | 50 | 15.0 | 1014.7 | 4.0 | N | 467 | 0.0 |
| 29.08.2024 | 16:37 | 25.2 | 69 | 19.1 | 1014.8 | 5.8 | N | 312 | 0.0 |
| 29.08.2024 | 16:42 | 25.0 | 56 | 15.7 | 1014.9 | 6.8 | N | 102 | 0.0 |
| 29.08.2024 | 16:47 | 25.0 | 55 | 15.3 | 1015.0 | 2.9 | N | 173 | 0.0 |
| 29.08.2024 | 16:52 | 25.8 | 50 | 14.5 | 1014.8 | 2.5 | N | 245 | 0.0 |
| 29.08.2024 | 16:57 | 26.7 | 47 | 14.5 | 1014.6 | 1.8 | N | 85 | 0.0 |
| 29.08.2024 | 17:02 | 26.6 | 53 | 16.1 | 1014.5 | 3.6 | N | 82 | 0.0 |
| 29.08.2024 | 17:07 | 25.9 | 58 | 16.9 | 1014.7 | 1.8 | N | 84 | 0.0 |
| 29.08.2024 | 17:12 | 25.6 | 59 | 17.2 | 1014.8 | 4.7 | N | 89 | 0.0 |
| 29.08.2024 | 17:17 | 25.6 | 59 | 17.1 | 1014.7 | 4.7 | N | 123 | 0.0 |
| 29.08.2024 | 17:22 | 25.6 | 59 | 16.9 | 1014.7 | 1.4 | N | 325 | 0.0 |
| 29.08.2024 | 17:28 | 25.8 | 59 | 17.1 | 1014.7 | 3.6 | N | 239 | 0.0 |
| 29.08.2024 | 17:33 | 25.9 | 59 | 17.4 | 1014.6 | 1.8 | N | 357 | 0.0 |
| 29.08.2024 | 17:38 | 25.3 | 63 | 17.9 | 1014.7 | 3.2 | N | 193 | 0.0 |
| 29.08.2024 | 17:43 | 25.5 | 63 | 17.9 | 1014.7 | 2.5 | N | 238 | 0.0 |
| 29.08.2024 | 17:48 | 26.1 | 60 | 17.7 | 1014.7 | 1.8 | N | 325 | 0.0 |
| 29.08.2024 | 17:53 | 26.3 | 58 | 17.3 | 1014.6 | 2.9 | N | 382 | 0.0 |
| 29.08.2024 | 17:58 | 26.0 | 56 | 16.4 | 1014.6 | 2.9 | N | 329 | 0.0 |
| 29.08.2024 | 18:03 | 26.3 | 55 | 16.6 | 1014.6 | 2.9 | N | 299 | 0.0 |
| 29.08.2024 | 18:08 | 25.2 | 63 | 17.6 | 1014.6 | 2.5 | N | 112 | 0.0 |
| 29.08.2024 | 18:13 | 24.9 | 65 | 17.9 | 1015.0 | 1.4 | N | 89 | 0.0 |
| 29.08.2024 | 18:18 | 24.8 | 69 | 18.9 | 1014.9 | 1.4 | N | 77 | 0.0 |
| 29.08.2024 | 18:23 | 25.4 | 62 | 17.7 | 1014.9 | 2.2 | N | 135 | 0.0 |
| 29.08.2024 | 18:28 | 25.9 | 61 | 17.8 | 1014.7 | 1.8 | N | 195 | 0.0 |
| 29.08.2024 | 18:33 | 26.1 | 59 | 17.5 | 1014.7 | 1.4 | N | 189 | 0.0 |
| 29.08.2024 | 18:38 | 24.7 | 66 | 17.9 | 1014.9 | 5.8 | N | 186 | 0.0 |
| 29.08.2024 | 18:43 | 23.8 | 74 | 18.9 | 1015.2 | 4.7 | N | 81 | 0.0 |
| 29.08.2024 | 18:48 | 23.9 | 72 | 18.5 | 1015.3 | 1.8 | N | 64 | 0.0 |
| 29.08.2024 | 18:53 | 23.8 | 68 | 17.5 | 1015.3 | 1.4 | N | 75 | 0.0 |
| 29.08.2024 | 18:58 | 24.4 | 66 | 17.6 | 1015.2 | 1.1 | N | 57 | 0.0 |
| 29.08.2024 | 19:03 | 24.1 | 68 | 17.8 | 1015.1 | 5.0 | N | 54 | 0.0 |
| 29.08.2024 | 19:08 | 24.1 | 66 | 17.4 | 1015.2 | 4.0 | N | 57 | 0.0 |
| 29.08.2024 | 19:13 | 24.3 | 65 | 17.3 | 1015.1 | 2.5 | N | 52 | 0.0 |
| 29.08.2024 | 19:18 | 24.2 | 65 | 17.1 | 1015.1 | 4.0 | N | 50 | 0.0 |
| 29.08.2024 | 19:23 | 24.2 | 64 | 17.0 | 1015.3 | 2.9 | N | 48 | 0.0 |
| 29.08.2024 | 19:28 | 24.0 | 67 | 17.6 | 1015.2 | 1.8 | N | 43 | 0.0 |
| 29.08.2024 | 19:33 | 23.9 | 69 | 17.8 | 1015.2 | 2.9 | N | 39 | 0.0 |
| 29.08.2024 | 19:38 | 23.9 | 65 | 16.9 | 1015.3 | 5.8 | N | 34 | 0.0 |
| 29.08.2024 | 19:43 | 23.9 | 68 | 17.5 | 1015.4 | 1.4 | N | 29 | 0.0 |
| 29.08.2024 | 19:48 | 23.6 | 69 | 17.6 | 1015.6 | 2.5 | N | 24 | 0.0 |
| 29.08.2024 | 19:53 | 23.5 | 69 | 17.5 | 1015.6 | 4.3 | N | 18 | 0.0 |
| 29.08.2024 | 19:58 | 23.1 | 68 | 16.8 | 1015.8 | 5.4 | N | 14 | 0.0 |
| 29.08.2024 | 20:03 | 23.5 | 67 | 17.0 | 1016.0 | 4.0 | N | 10 | 0.0 |
| 29.08.2024 | 20:08 | 23.6 | 69 | 17.6 | 1016.1 | 0.4 | N | 5 | 0.0 |
| 29.08.2024 | 20:13 | 23.5 | 69 | 17.5 | 1015.9 | 3.6 | N | 3 | 0.0 |
| 29.08.2024 | 20:19 | 22.3 | 77 | 18.0 | 1016.3 | 1.1 | N | 0 | 0.0 |
| 29.08.2024 | 20:24 | 22.2 | 75 | 17.6 | 1016.2 | 1.4 | N | 0 | 0.0 |
| 29.08.2024 | 20:29 | 22.2 | 74 | 17.4 | 1016.3 | 5.0 | N | 0 | 0.0 |
| 29.08.2024 | 20:34 | 22.1 | 75 | 17.4 | 1016.4 | 2.2 | N | 0 | 0.0 |
| 29.08.2024 | 20:39 | 22.3 | 73 | 17.2 | 1016.3 | 2.9 | N | 0 | 0.0 |
| 29.08.2024 | 20:44 | 22.2 | 74 | 17.4 | 1016.4 | 1.4 | N | 0 | 0.0 |
| 29.08.2024 | 20:49 | 21.9 | 79 | 18.1 | 1016.5 | 0.4 | N | 0 | 0.0 |
| 29.08.2024 | 20:54 | 21.4 | 82 | 18.1 | 1016.6 | 2.9 | N | 0 | 0.0 |
| 29.08.2024 | 20:59 | 21.3 | 79 | 17.6 | 1016.5 | 2.9 | N | 0 | 0.0 |
| 29.08.2024 | 21:04 | 21.6 | 77 | 17.5 | 1016.6 | 2.5 | N | 0 | 0.0 |
| 29.08.2024 | 21:09 | 21.6 | 80 | 18.1 | 1016.5 | 1.1 | N | 0 | 0.0 |
| 29.08.2024 | 21:14 | 21.6 | 79 | 17.8 | 1016.6 | 1.1 | N | 0 | 0.0 |
| 29.08.2024 | 21:19 | 21.5 | 77 | 17.4 | 1016.6 | 0.7 | N | 0 | 0.0 |
| 29.08.2024 | 21:24 | 21.5 | 78 | 17.5 | 1016.6 | 3.2 | N | 0 | 0.0 |
| 29.08.2024 | 21:29 | 21.0 | 80 | 17.5 | 1016.9 | 0.7 | N | 0 | 0.0 |
| 29.08.2024 | 21:34 | 20.7 | 80 | 17.2 | 1016.9 | 1.4 | N | 0 | 0.0 |
| 29.08.2024 | 21:39 | 20.9 | 78 | 16.9 | 1016.8 | 1.1 | N | 0 | 0.0 |
| 29.08.2024 | 21:44 | 21.0 | 75 | 16.4 | 1016.7 | 2.9 | N | 0 | 0.0 |
| 29.08.2024 | 21:49 | 20.8 | 77 | 16.5 | 1016.8 | 3.6 | N | 0 | 0.0 |
| 29.08.2024 | 21:54 | 20.4 | 81 | 17.0 | 1016.7 | 1.8 | N | 0 | 0.0 |
| 29.08.2024 | 21:59 | 20.3 | 81 | 16.9 | 1016.7 | 0.7 | N | 0 | 0.0 |
| 29.08.2024 | 22:04 | 20.0 | 83 | 17.0 | 1016.9 | 1.4 | N | 0 | 0.0 |
| 29.08.2024 | 22:09 | 20.1 | 82 | 17.0 | 1016.8 | 2.9 | N | 0 | 0.0 |
| 29.08.2024 | 22:14 | 20.1 | 81 | 16.8 | 1016.7 | 1.8 | N | 0 | 0.0 |
| 29.08.2024 | 22:19 | 20.3 | 79 | 16.5 | 1016.5 | 0.7 | N | 0 | 0.0 |
| 29.08.2024 | 22:24 | 20.2 | 81 | 16.8 | 1016.4 | 3.2 | N | 0 | 0.0 |
| 29.08.2024 | 22:29 | 19.9 | 82 | 16.8 | 1016.4 | 2.2 | N | 0 | 0.0 |
| 29.08.2024 | 22:34 | 19.9 | 81 | 16.5 | 1016.4 | 3.2 | N | 0 | 0.0 |
| 29.08.2024 | 22:39 | 19.9 | 79 | 16.3 | 1016.3 | 2.9 | N | 0 | 0.0 |
| 29.08.2024 | 22:44 | 20.0 | 77 | 15.9 | 1016.4 | 1.4 | N | 0 | 0.0 |
| 29.08.2024 | 22:50 | 20.0 | 82 | 16.8 | 1016.3 | 3.2 | N | 0 | 0.0 |
| 29.08.2024 | 22:55 | 19.5 | 84 | 16.7 | 1016.4 | 1.4 | N | 0 | 0.0 |
| 29.08.2024 | 23:00 | 19.0 | 86 | 16.6 | 1016.6 | 1.4 | N | 0 | 0.0 |
| 29.08.2024 | 23:05 | 18.8 | 86 | 16.3 | 1016.6 | 2.2 | N | 0 | 0.0 |
| 29.08.2024 | 23:10 | 18.9 | 86 | 16.4 | 1016.5 | 1.1 | N | 0 | 0.0 |
| 29.08.2024 | 23:15 | 18.9 | 85 | 16.4 | 1016.4 | 2.2 | N | 0 | 0.0 |
| 29.08.2024 | 23:20 | 19.2 | 84 | 16.4 | 1016.4 | 2.5 | N | 0 | 0.0 |
| 29.08.2024 | 23:25 | 19.2 | 84 | 16.4 | 1016.3 | 0.7 | N | 0 | 0.0 |
| 29.08.2024 | 23:30 | 19.2 | 84 | 16.4 | 1016.2 | 0.7 | N | 0 | 0.0 |
| 29.08.2024 | 23:35 | 19.2 | 84 | 16.5 | 1016.3 | 4.0 | N | 0 | 0.0 |
| 29.08.2024 | 23:40 | 19.0 | 84 | 16.3 | 1016.2 | 1.8 | N | 0 | 0.0 |
| 29.08.2024 | 23:45 | 18.8 | 85 | 16.3 | 1016.3 | 1.1 | N | 0 | 0.0 |
| 29.08.2024 | 23:50 | 18.8 | 85 | 16.3 | 1016.3 | 2.2 | N | 0 | 0.0 |
| 29.08.2024 | 23:55 | 18.7 | 85 | 16.1 | 1016.4 | 2.9 | N | 0 | 0.0 |